Time;durP1;ratioP1;P1;durP2;ratioP2;P2;SDS_P1;SDS_P2;PMS_P1;PMS_P2;Temp;Humidity;BMP_temperature;BMP_pressure;BME280_temperature;BME280_humidity;BME280_pressure;Samples;Min_cycle;Max_cycle;Signal;HPM_P1;HPM_P2
2022/06/22 00:00:07;;;;;;;2.33;2.03;;;20.50;59.00;;;;;;5050770;28;20045;-74
2022/06/22 00:02:36;;;;;;;3.67;2.30;;;21.00;55.40;;;;;;5059670;28;20059;-74
2022/06/22 00:05:04;;;;;;;3.58;1.90;;;21.00;55.40;;;;;;5066863;28;20532;-74
2022/06/22 00:07:33;;;;;;;2.80;2.00;;;21.00;58.80;;;;;;5069601;28;20049;-74
2022/06/22 00:10:06;;;;;;;3.40;2.10;;;21.00;55.30;;;;;;5069448;28;20056;-74
2022/06/22 00:12:35;;;;;;;2.40;2.17;;;20.90;59.00;;;;;;5069894;28;20058;-74
2022/06/22 00:15:02;;;;;;;2.90;2.20;;;21.00;55.40;;;;;;5069341;28;20665;-74
2022/06/22 00:17:33;;;;;;;3.45;1.92;;;21.00;58.40;;;;;;5069845;28;20059;-74
2022/06/22 00:20:00;;;;;;;2.50;1.80;;;20.50;58.60;;;;;;5069083;28;20048;-74
2022/06/22 00:22:27;;;;;;;3.95;2.10;;;21.00;55.40;;;;;;5069587;28;20052;-74
2022/06/22 00:24:57;;;;;;;3.00;1.95;;;20.90;55.30;;;;;;5069234;28;20063;-73
2022/06/22 00:27:30;;;;;;;3.67;2.25;;;21.00;55.40;;;;;;5069215;28;20478;-73
2022/06/22 00:30:20;;;;;;;2.92;2.00;;;21.00;55.30;;;;;;5069660;28;20087;-73
2022/06/22 00:33:09;;;;;;;2.38;1.98;;;21.00;55.20;;;;;;5069138;28;20068;-73
2022/06/22 00:35:50;;;;;;;3.95;2.30;;;21.20;59.20;;;;;;5062452;28;20139;-73
2022/06/22 00:38:18;;;;;;;2.78;1.95;;;20.90;55.30;;;;;;5048895;28;20148;-73
2022/06/22 00:40:44;;;;;;;3.05;2.00;;;20.90;55.40;;;;;;5049412;28;20135;-73
2022/06/22 00:43:13;;;;;;;2.22;1.92;;;20.90;55.40;;;;;;5048776;28;20057;-73
2022/06/22 00:45:41;;;;;;;2.65;2.10;;;20.90;55.30;;;;;;5049276;28;20056;-73
2022/06/22 00:48:13;;;;;;;3.55;2.00;;;20.90;55.40;;;;;;5048547;28;20044;-73
2022/06/22 00:50:41;;;;;;;2.40;1.75;;;20.90;55.30;;;;;;5049279;28;20056;-73
2022/06/22 00:53:13;;;;;;;2.28;1.92;;;20.80;59.00;;;;;;5050835;28;20049;-73
2022/06/22 00:55:41;;;;;;;2.65;2.00;;;21.20;59.10;;;;;;5050214;28;20053;-73
2022/06/22 00:58:12;;;;;;;3.42;2.20;;;21.30;58.50;;;;;;5052794;28;20128;-73
2022/06/22 01:00:40;;;;;;;2.78;1.90;;;21.20;59.60;;;;;;5068686;28;20056;-73
2022/06/22 01:03:16;;;;;;;3.00;1.88;;;20.80;59.20;;;;;;5069263;28;20089;-73
2022/06/22 01:05:46;;;;;;;2.30;1.90;;;20.80;58.70;;;;;;5068905;28;20052;-73
2022/06/22 01:08:16;;;;;;;2.75;2.00;;;20.80;55.30;;;;;;5068470;28;20644;-73
2022/06/22 01:10:44;;;;;;;2.70;2.00;;;20.80;55.30;;;;;;5069076;28;20505;-73
2022/06/22 01:13:14;;;;;;;2.78;1.80;;;20.70;58.60;;;;;;5067948;28;20056;-73
2022/06/22 01:15:45;;;;;;;2.40;1.85;;;20.90;58.30;;;;;;5069439;28;20619;-73
2022/06/22 01:18:12;;;;;;;3.22;1.95;;;20.70;55.20;;;;;;5068368;28;20072;-74
2022/06/22 01:20:50;;;;;;;2.10;1.80;;;20.70;55.30;;;;;;5068307;28;20072;-74
2022/06/22 01:23:54;;;;;;;2.20;1.70;;;20.50;58.40;;;;;;5068409;28;20125;-74
2022/06/22 01:26:37;;;;;;;2.58;1.95;;;20.70;55.10;;;;;;5054267;28;20059;-74
2022/06/22 01:29:07;;;;;;;2.35;2.00;;;20.70;55.20;;;;;;5048330;28;20059;-74
2022/06/22 01:31:34;;;;;;;2.30;1.60;;;20.70;55.30;;;;;;5050148;28;20143;-74
2022/06/22 01:34:01;;;;;;;2.42;1.75;;;20.20;59.30;;;;;;5048046;28;20066;-74
2022/06/22 01:36:29;;;;;;;2.45;1.85;;;20.60;55.20;;;;;;5047547;28;20063;-72
2022/06/22 01:38:56;;;;;;;3.60;1.90;;;20.60;59.50;;;;;;5047839;28;20055;-73
2022/06/22 01:41:29;;;;;;;2.60;1.73;;;20.60;55.20;;;;;;5049386;28;20139;-72
2022/06/22 01:43:57;;;;;;;1.85;1.63;;;19.50;58.60;;;;;;5047727;28;20057;-73
2022/06/22 01:46:35;;;;;;;1.88;1.60;;;20.70;59.00;;;;;;5048300;28;20530;-73
2022/06/22 01:49:04;;;;;;;2.10;1.70;;;20.50;58.80;;;;;;5048816;28;20139;-73
2022/06/22 01:51:35;;;;;;;2.30;1.77;;;20.50;58.60;;;;;;5048991;28;20049;-72
2022/06/22 01:54:05;;;;;;;2.10;1.90;;;20.60;55.10;;;;;;5049023;28;20075;-73
2022/06/22 01:56:36;;;;;;;2.08;1.60;;;20.50;58.80;;;;;;5066422;28;20083;-72
2022/06/22 01:59:06;;;;;;;2.28;1.90;;;20.60;55.00;;;;;;5069076;28;20131;-73
2022/06/22 02:01:36;;;;;;;2.17;1.65;;;20.60;55.00;;;;;;5067433;28;20416;-73
2022/06/22 02:04:23;;;;;;;2.72;1.50;;;20.50;59.10;;;;;;5067587;28;20091;-74
2022/06/22 02:09:57;;;;;;;2.20;1.70;;;20.50;54.90;;;;;;5047913;28;20522;-74
2022/06/22 02:12:28;;;;;;;3.00;1.58;;;20.50;54.90;;;;;;5057829;28;20066;-73
2022/06/22 02:14:59;;;;;;;2.08;1.60;;;20.50;55.00;;;;;;5067465;28;20052;-73
2022/06/22 02:17:28;;;;;;;1.70;1.60;;;20.50;58.80;;;;;;5067249;28;20132;-73
2022/06/22 02:20:27;;;;;;;2.20;1.60;;;20.40;58.40;;;;;;5067648;28;20056;-73
2022/06/22 02:22:57;;;;;;;1.38;1.27;;;20.50;54.80;;;;;;5067301;28;20060;-73
2022/06/22 02:25:24;;;;;;;1.50;1.40;;;20.40;55.00;;;;;;5068684;28;20049;-73
2022/06/22 02:27:50;;;;;;;1.75;1.50;;;19.60;57.90;;;;;;5067343;28;20440;-73
2022/06/22 02:30:17;;;;;;;4.47;1.70;;;20.40;58.60;;;;;;5047075;28;20048;-75
2022/06/22 02:32:45;;;;;;;1.95;1.52;;;20.40;54.90;;;;;;5047463;28;20525;-73
2022/06/22 02:35:13;;;;;;;1.48;1.38;;;20.40;54.90;;;;;;5047390;28;20087;-73
2022/06/22 02:37:41;;;;;;;2.05;1.50;;;20.40;59.00;;;;;;5048697;28;20259;-74
2022/06/22 02:40:11;;;;;;;2.00;1.63;;;20.40;54.90;;;;;;5047465;28;20570;-73
2022/06/22 02:45:22;;;;;;;1.63;1.30;;;20.30;58.40;;;;;;5054313;28;20437;-73
2022/06/22 02:47:56;;;;;;;1.60;1.40;;;20.20;58.70;;;;;;5068075;28;20496;-73
2022/06/22 02:50:25;;;;;;;2.10;1.60;;;20.30;54.80;;;;;;5071205;28;20490;-73
2022/06/22 02:52:55;;;;;;;1.77;1.50;;;20.30;54.90;;;;;;5070950;28;20060;-73
2022/06/22 02:55:24;;;;;;;1.83;1.42;;;19.70;58.30;;;;;;5071131;28;20080;-73
2022/06/22 02:57:57;;;;;;;2.80;1.45;;;20.40;54.90;;;;;;5071271;28;20080;-73
2022/06/22 03:00:25;;;;;;;1.50;1.38;;;20.30;59.50;;;;;;5071217;28;20071;-73
2022/06/22 03:02:55;;;;;;;1.60;1.30;;;20.20;58.40;;;;;;5057246;28;20064;-73
2022/06/22 03:05:22;;;;;;;1.40;1.30;;;20.20;59.10;;;;;;5051948;28;20071;-73
2022/06/22 03:07:53;;;;;;;2.95;1.30;;;20.30;59.00;;;;;;5057446;28;20123;-74
2022/06/22 03:10:23;;;;;;;1.95;1.48;;;21.40;59.10;;;;;;5071243;28;20056;-73
2022/06/22 03:12:50;;;;;;;1.67;1.35;;;20.00;58.30;;;;;;5070316;28;20128;-73
2022/06/22 03:15:18;;;;;;;1.40;1.30;;;20.20;54.80;;;;;;5070930;28;20059;-73
2022/06/22 03:17:45;;;;;;;1.60;1.40;;;20.20;59.00;;;;;;5070837;28;20055;-73
2022/06/22 03:20:15;;;;;;;1.40;1.30;;;20.20;54.80;;;;;;5069066;28;20503;-73
2022/06/22 03:22:43;;;;;;;1.63;1.30;;;20.30;57.90;;;;;;5071096;28;20059;-73
2022/06/22 03:25:12;;;;;;;1.65;1.38;;;20.20;54.80;;;;;;5053767;28;20057;-73
2022/06/22 03:27:41;;;;;;;1.67;1.50;;;20.20;54.80;;;;;;5050875;28;20486;-73
2022/06/22 03:30:13;;;;;;;1.42;1.27;;;20.10;58.00;;;;;;5050821;28;20051;-73
2022/06/22 03:32:42;;;;;;;1.48;1.30;;;20.20;54.80;;;;;;5050856;28;20135;-73
2022/06/22 03:35:11;;;;;;;1.45;1.35;;;20.20;58.80;;;;;;5050470;28;20084;-73
2022/06/22 03:37:40;;;;;;;1.40;1.30;;;20.00;58.70;;;;;;5053116;28;20063;-73
2022/06/22 03:40:10;;;;;;;1.70;1.35;;;20.10;54.80;;;;;;5070305;28;20147;-73
2022/06/22 03:42:40;;;;;;;1.30;1.20;;;20.00;59.30;;;;;;5070053;28;20128;-73
2022/06/22 03:45:09;;;;;;;1.40;1.25;;;20.20;54.90;;;;;;5070049;28;20417;-73
2022/06/22 03:47:38;;;;;;;1.30;1.10;;;20.20;54.90;;;;;;5070062;28;20051;-73
2022/06/22 03:50:07;;;;;;;1.30;1.20;;;19.40;57.40;;;;;;5070423;28;20676;-73
2022/06/22 03:52:37;;;;;;;1.60;1.30;;;20.10;55.30;;;;;;5069895;28;20062;-72
2022/06/22 03:55:07;;;;;;;1.67;1.23;;;20.10;54.70;;;;;;5064087;28;20057;-73
2022/06/22 03:57:36;;;;;;;1.40;1.30;;;20.10;54.70;;;;;;5051491;28;20075;-73
2022/06/22 04:00:05;;;;;;;1.45;1.17;;;20.10;54.70;;;;;;5049404;28;20637;-73
2022/06/22 04:02:31;;;;;;;1.30;1.17;;;20.10;55.30;;;;;;5064520;28;20152;-73
2022/06/22 04:04:58;;;;;;;2.33;1.30;;;20.10;54.70;;;;;;5069634;28;20131;-73
2022/06/22 04:07:26;;;;;;;1.27;1.15;;;20.10;58.10;;;;;;5069858;28;20131;-73
2022/06/22 04:09:55;;;;;;;1.48;1.30;;;20.10;58.20;;;;;;5069949;28;20090;-72
2022/06/22 04:12:25;;;;;;;1.60;1.33;;;20.10;54.60;;;;;;5069185;28;20577;-72
2022/06/22 04:14:54;;;;;;;1.60;1.33;;;20.00;58.50;;;;;;5069645;28;20053;-73
2022/06/22 04:17:24;;;;;;;1.92;1.50;;;20.30;57.00;;;;;;5069593;28;20048;-73
2022/06/22 04:19:58;;;;;;;1.30;1.20;;;20.10;54.60;;;;;;5069414;28;20048;-73
2022/06/22 04:22:27;;;;;;;1.30;1.20;;;20.10;56.50;;;;;;5069517;28;20048;-73
2022/06/22 04:24:55;;;;;;;1.40;1.30;;;20.40;58.00;;;;;;5069249;28;20306;-73
2022/06/22 04:27:27;;;;;;;1.90;1.48;;;19.80;57.00;;;;;;5070479;28;20137;-73
2022/06/22 04:29:57;;;;;;;1.40;1.30;;;20.10;58.60;;;;;;5054866;28;20051;-73
2022/06/22 04:32:26;;;;;;;1.60;1.30;;;19.40;58.80;;;;;;5049472;28;20056;-72
2022/06/22 04:34:54;;;;;;;1.42;1.30;;;20.10;54.60;;;;;;5049268;28;20481;-74
2022/06/22 04:37:25;;;;;;;1.67;1.45;;;19.80;57.00;;;;;;5049143;28;20052;-73
2022/06/22 04:39:54;;;;;;;1.55;1.40;;;20.10;57.80;;;;;;5049383;28;20470;-73
2022/06/22 04:42:21;;;;;;;1.40;1.30;;;19.90;58.10;;;;;;5050315;28;20048;-74
2022/06/22 04:44:50;;;;;;;1.52;1.40;;;19.90;58.50;;;;;;5061262;28;20044;-73
2022/06/22 04:47:18;;;;;;;1.40;1.30;;;19.60;56.60;;;;;;5059252;28;20064;-72
2022/06/22 04:49:49;;;;;;;1.65;1.50;;;20.00;54.60;;;;;;5058020;28;20137;-74
2022/06/22 04:52:21;;;;;;;1.90;1.70;;;19.90;59.30;;;;;;5057541;28;20068;-73
2022/06/22 04:54:48;;;;;;;2.05;1.48;;;19.00;58.40;;;;;;5056419;28;20136;-73
2022/06/22 04:57:16;;;;;;;1.85;1.70;;;19.60;57.10;;;;;;5049666;28;20068;-73
2022/06/22 04:59:43;;;;;;;1.50;1.40;;;20.00;54.80;;;;;;5059407;28;20044;-73
2022/06/22 05:02:12;;;;;;;1.60;1.50;;;20.00;54.80;;;;;;5056739;28;20259;-73
2022/06/22 05:04:40;;;;;;;2.30;1.60;;;20.70;58.80;;;;;;5057095;28;20053;-73
2022/06/22 05:07:08;;;;;;;1.83;1.60;;;19.40;56.50;;;;;;5060159;28;20047;-73
2022/06/22 05:09:37;;;;;;;2.17;1.70;;;20.00;54.80;;;;;;5061206;28;20079;-73
2022/06/22 05:12:05;;;;;;;2.13;1.50;;;20.00;54.80;;;;;;5058543;28;20135;-75
2022/06/22 05:14:32;;;;;;;1.85;1.55;;;20.00;54.80;;;;;;5059218;28;20127;-73
2022/06/22 05:17:00;;;;;;;1.75;1.58;;;20.00;54.90;;;;;;5059370;28;20508;-74
2022/06/22 05:19:32;;;;;;;3.55;1.73;;;20.00;54.90;;;;;;5060737;28;20047;-73
2022/06/22 05:21:59;;;;;;;2.00;1.80;;;20.00;54.90;;;;;;5049185;28;20138;-73
2022/06/22 05:24:28;;;;;;;3.92;1.98;;;19.80;58.30;;;;;;5048467;28;20776;-73
2022/06/22 05:26:55;;;;;;;3.70;1.80;;;20.00;59.20;;;;;;5048305;28;20506;-73
2022/06/22 05:29:23;;;;;;;2.10;1.90;;;20.00;55.00;;;;;;5047963;28;20080;-72
2022/06/22 05:31:51;;;;;;;3.10;1.48;;;20.00;59.40;;;;;;5048157;28;20087;-74
2022/06/22 05:34:20;;;;;;;2.42;1.70;;;20.10;55.10;;;;;;5047912;28;20133;-73
2022/06/22 05:36:50;;;;;;;5.53;1.60;;;20.10;55.00;;;;;;5063508;28;20080;-73
2022/06/22 05:39:16;;;;;;;4.00;1.80;;;20.20;55.10;;;;;;5067868;28;20546;-74
2022/06/22 05:41:45;;;;;;;3.83;1.88;;;20.20;55.20;;;;;;5069579;28;20135;-73
2022/06/22 05:44:13;;;;;;;7.63;1.80;;;20.30;58.10;;;;;;5067556;28;20063;-73
2022/06/22 05:46:40;;;;;;;2.00;1.70;;;20.50;59.30;;;;;;5068348;28;20155;-74
2022/06/22 05:49:07;;;;;;;2.88;1.80;;;20.50;55.00;;;;;;5067306;28;20573;-73
2022/06/22 05:51:36;;;;;;;2.28;1.73;;;20.60;54.70;;;;;;5050819;28;20053;-73
2022/06/22 05:54:06;;;;;;;3.92;1.70;;;20.70;54.40;;;;;;5031155;28;20494;-72
2022/06/22 05:56:36;;;;;;;3.83;1.73;;;20.90;54.40;;;;;;5049130;28;20052;-72
2022/06/22 05:59:07;;;;;;;5.68;1.80;;;21.10;59.00;;;;;;5047806;28;20051;-73
2022/06/22 06:01:39;;;;;;;2.13;1.60;;;21.10;53.90;;;;;;5054251;28;20139;-72
2022/06/22 06:04:11;;;;;;;3.85;1.90;;;21.30;53.70;;;;;;5067829;28;20571;-73
2022/06/22 06:06:39;;;;;;;3.65;1.80;;;21.50;57.50;;;;;;5063698;28;20124;-73
2022/06/22 06:09:10;;;;;;;3.45;1.80;;;21.60;53.20;;;;;;5064937;28;20109;-73
2022/06/22 06:11:39;;;;;;;3.22;1.85;;;21.90;57.50;;;;;;5067527;28;20053;-74
2022/06/22 06:14:09;;;;;;;4.15;1.90;;;21.80;52.80;;;;;;5068676;28;20049;-73
2022/06/22 06:16:41;;;;;;;3.72;1.70;;;21.90;52.60;;;;;;5068232;28;20143;-73
2022/06/22 06:19:08;;;;;;;3.83;1.60;;;22.20;56.60;;;;;;5067370;28;20132;-74
2022/06/22 06:21:37;;;;;;;4.38;1.70;;;22.20;52.40;;;;;;5067614;28;20056;-73
2022/06/22 06:24:06;;;;;;;3.78;1.50;;;22.00;56.00;;;;;;5058449;28;20056;-74
2022/06/22 06:29:25;;;;;;;1.60;1.40;;;22.50;52.10;;;;;;5047418;28;20041;-73
2022/06/22 06:32:01;;;;;;;2.38;1.85;;;22.60;51.90;;;;;;5047384;28;20059;-75
2022/06/22 06:34:30;;;;;;;2.08;1.52;;;22.80;51.80;;;;;;5055448;28;20218;-73
2022/06/22 06:36:59;;;;;;;2.72;1.45;;;22.80;51.60;;;;;;5056222;28;20321;-73
2022/06/22 06:39:29;;;;;;;3.90;1.50;;;22.40;54.80;;;;;;5065806;28;20048;-73
2022/06/22 06:42:04;;;;;;;2.70;1.35;;;22.80;55.30;;;;;;5066233;28;20595;-73
2022/06/22 06:44:32;;;;;;;3.05;1.50;;;23.00;51.30;;;;;;5066875;28;20507;-73
2022/06/22 06:47:05;;;;;;;2.70;1.63;;;23.10;51.30;;;;;;5066792;28;20063;-73
2022/06/22 06:49:34;;;;;;;2.58;1.58;;;23.00;55.20;;;;;;5060812;28;20105;-73
2022/06/22 06:52:03;;;;;;;2.85;1.60;;;23.30;51.00;;;;;;5063088;28;20124;-74
2022/06/22 06:54:31;;;;;;;2.78;1.60;;;23.10;54.80;;;;;;5065834;28;20588;-73
2022/06/22 06:57:00;;;;;;;2.65;1.60;;;23.10;54.40;;;;;;5056495;28;20044;-72
2022/06/22 06:59:27;;;;;;;5.75;1.90;;;23.60;55.30;;;;;;5055455;28;20045;-73
2022/06/22 07:01:54;;;;;;;4.80;1.63;;;22.80;54.50;;;;;;5056771;28;20055;-73
2022/06/22 07:04:24;;;;;;;6.35;2.00;;;23.60;50.30;;;;;;5062239;28;20041;-72
2022/06/22 07:06:51;;;;;;;3.30;1.77;;;23.70;50.20;;;;;;5047467;28;20084;-72
2022/06/22 07:09:20;;;;;;;5.47;1.80;;;23.80;50.10;;;;;;5066678;28;20071;-73
2022/06/22 07:11:48;;;;;;;3.45;1.88;;;23.90;53.80;;;;;;5067478;28;20138;-73
2022/06/22 07:14:20;;;;;;;5.20;1.90;;;23.90;49.90;;;;;;5064752;28;20121;-73
2022/06/22 07:16:47;;;;;;;3.85;2.35;;;24.00;49.80;;;;;;5067532;28;20502;-73
2022/06/22 07:19:16;;;;;;;4.50;1.80;;;24.10;49.70;;;;;;5066681;28;20063;-73
2022/06/22 07:21:44;;;;;;;3.80;2.20;;;24.10;49.60;;;;;;5067261;28;20438;-73
2022/06/22 07:24:13;;;;;;;3.33;1.80;;;25.00;49.90;;;;;;5066615;28;20063;-73
2022/06/22 07:26:46;;;;;;;3.13;1.75;;;24.30;49.40;;;;;;5067283;28;20063;-73
2022/06/22 07:29:15;;;;;;;3.97;1.60;;;24.30;49.30;;;;;;5061168;28;20079;-73
2022/06/22 07:31:46;;;;;;;4.30;1.55;;;24.40;49.20;;;;;;5055192;28;20053;-73
2022/06/22 07:34:16;;;;;;;3.90;1.85;;;24.60;52.90;;;;;;5068483;28;20469;-73
2022/06/22 07:36:46;;;;;;;4.07;1.80;;;24.50;49.00;;;;;;5070680;28;20056;-73
2022/06/22 07:39:15;;;;;;;2.55;1.77;;;24.60;49.00;;;;;;5064929;28;20537;-73
2022/06/22 07:41:42;;;;;;;2.67;2.10;;;24.60;48.80;;;;;;5055808;28;20045;-73
2022/06/22 07:44:12;;;;;;;3.28;1.92;;;24.50;53.10;;;;;;5058419;28;20140;-73
2022/06/22 07:46:43;;;;;;;2.40;1.58;;;24.10;51.60;;;;;;5053032;28;20063;-73
2022/06/22 07:49:13;;;;;;;2.08;1.50;;;24.80;48.70;;;;;;5050417;28;20052;-73
2022/06/22 07:51:48;;;;;;;3.10;1.45;;;24.80;48.60;;;;;;5061608;28;20067;-73
2022/06/22 07:54:17;;;;;;;3.22;1.52;;;24.90;48.60;;;;;;5070320;28;20067;-73
2022/06/22 07:56:48;;;;;;;4.10;1.52;;;24.90;52.00;;;;;;5059998;28;20063;-72
2022/06/22 07:59:16;;;;;;;2.38;1.50;;;24.80;48.40;;;;;;5054013;28;20063;-73
2022/06/22 08:01:43;;;;;;;9.52;2.13;;;25.60;53.30;;;;;;5058033;28;20084;-73
2022/06/22 08:04:16;;;;;;;10.60;2.33;;;24.90;48.40;;;;;;5070915;28;20587;-73
2022/06/22 08:06:45;;;;;;;7.97;2.03;;;24.90;48.40;;;;;;5069848;28;20083;-73
2022/06/22 08:09:14;;;;;;;5.82;1.80;;;24.40;51.50;;;;;;5069861;28;20049;-72
2022/06/22 08:11:43;;;;;;;7.15;2.15;;;24.90;52.20;;;;;;5070197;28;20163;-73
2022/06/22 08:14:11;;;;;;;10.85;2.15;;;26.00;53.20;;;;;;5055710;28;20061;-73
2022/06/22 08:16:40;;;;;;;5.93;2.03;;;24.90;51.70;;;;;;5049820;28;20053;-73
2022/06/22 08:19:06;;;;;;;8.07;1.60;;;24.30;51.70;;;;;;5058438;28;20116;-73
2022/06/22 08:21:35;;;;;;;5.75;1.83;;;24.90;48.40;;;;;;5058739;28;20139;-72
2022/06/22 08:24:03;;;;;;;6.22;2.20;;;24.90;48.40;;;;;;5049803;28;20139;-72
2022/06/22 08:26:31;;;;;;;8.45;2.15;;;24.90;48.40;;;;;;5049845;28;20103;-72
2022/06/22 08:28:58;;;;;;;8.27;2.10;;;24.90;48.30;;;;;;5053644;28;20082;-72
2022/06/22 08:31:26;;;;;;;5.18;1.88;;;25.00;52.50;;;;;;5049800;28;20061;-72
2022/06/22 08:33:55;;;;;;;5.30;1.67;;;24.90;48.40;;;;;;5067658;28;20059;-74
2022/06/22 08:36:24;;;;;;;4.95;1.55;;;24.90;48.30;;;;;;5069016;28;20052;-72
2022/06/22 08:38:56;;;;;;;6.07;1.50;;;25.00;48.30;;;;;;5069628;28;20056;-73
2022/06/22 08:41:32;;;;;;;4.28;1.60;;;24.70;52.30;;;;;;5069774;28;20056;-73
2022/06/22 08:44:01;;;;;;;4.03;1.88;;;25.10;48.40;;;;;;5069429;28;20131;-74
2022/06/22 08:46:46;;;;;;;7.95;1.70;;;25.10;48.30;;;;;;5061664;28;20076;-72
2022/06/22 08:49:23;;;;;;;7.63;1.67;;;25.10;48.30;;;;;;5049331;28;20051;-73
2022/06/22 08:52:02;;;;;;;6.72;1.90;;;25.10;48.30;;;;;;5049154;28;20136;-73
2022/06/22 08:55:04;;;;;;;3.33;1.85;;;25.10;52.20;;;;;;5048707;28;20115;-73
2022/06/22 08:57:45;;;;;;;2.75;1.55;;;25.00;51.10;;;;;;5045096;28;20049;-73
2022/06/22 09:00:18;;;;;;;3.33;1.42;;;25.00;52.80;;;;;;5049050;28;20049;-72
2022/06/22 09:03:18;;;;;;;3.75;1.50;;;25.10;48.30;;;;;;5060489;28;20053;-73
2022/06/22 09:06:17;;;;;;;2.88;1.55;;;25.10;48.30;;;;;;5049144;28;20056;-73
2022/06/22 09:09:12;;;;;;;4.50;1.63;;;25.10;48.30;;;;;;5058216;28;20063;-73
2022/06/22 09:11:42;;;;;;;3.58;1.58;;;25.10;48.20;;;;;;5069022;28;20053;-72
2022/06/22 09:14:42;;;;;;;3.22;1.65;;;25.10;48.20;;;;;;5068147;28;20181;-73
2022/06/22 09:17:20;;;;;;;5.80;1.73;;;25.40;50.00;;;;;;5025096;28;20060;-73
2022/06/22 09:20:21;;;;;;;2.17;1.38;;;25.10;48.20;;;;;;5059145;28;20061;-72
2022/06/22 09:22:55;;;;;;;5.47;1.60;;;25.10;48.20;;;;;;5049510;28;20413;-72
2022/06/22 09:25:27;;;;;;;4.80;1.73;;;24.90;48.00;;;;;;5048651;28;20660;-72
2022/06/22 09:27:56;;;;;;;3.97;1.80;;;25.10;51.50;;;;;;5050651;28;20060;-72
2022/06/22 09:30:40;;;;;;;2.13;1.52;;;25.10;52.60;;;;;;5069482;28;20041;-72
2022/06/22 09:33:28;;;;;;;4.13;1.75;;;25.10;48.20;;;;;;5069313;28;20523;-75
2022/06/22 09:36:05;;;;;;;3.53;1.40;;;25.10;51.60;;;;;;5064552;28;20601;-74
2022/06/22 09:38:43;;;;;;;2.25;1.40;;;25.00;48.20;;;;;;5048477;28;20136;-73
2022/06/22 09:41:13;;;;;;;3.17;1.30;;;25.10;48.30;;;;;;5048452;28;20059;-75
2022/06/22 09:43:50;;;;;;;5.32;1.77;;;25.10;48.30;;;;;;5049319;28;20063;-76
2022/06/22 09:46:50;;;;;;;14.07;2.05;;;25.10;48.90;;;;;;5048338;28;20110;-72
2022/06/22 09:49:43;;;;;;;4.75;1.48;;;25.10;48.30;;;;;;5004521;28;20056;-72
2022/06/22 09:52:17;;;;;;;5.28;1.50;;;25.10;48.40;;;;;;5046202;28;20561;-73
2022/06/22 09:58:13;;;;;;;3.30;1.60;;;24.90;48.50;;;;;;5047500;28;20045;-73
2022/06/22 10:00:43;;;;;;;4.82;1.60;;;24.90;48.60;;;;;;5047982;28;20722;-72
2022/06/22 10:03:28;;;;;;;2.80;1.40;;;24.80;48.80;;;;;;5048688;28;20520;-71
2022/06/22 10:06:24;;;;;;;6.28;2.38;;;24.80;48.80;;;;;;5049412;28;20405;-71
2022/06/22 10:08:59;;;;;;;24.52;4.45;;;24.70;48.90;;;;;;5056859;28;20123;-71
2022/06/22 10:11:29;;;;;;;16.63;4.07;;;24.50;52.10;;;;;;5067829;28;20051;-73
2022/06/22 10:14:14;;;;;;;14.25;3.03;;;24.40;52.50;;;;;;5067675;28;20054;-72
2022/06/22 10:16:47;;;;;;;9.55;2.63;;;24.50;49.20;;;;;;5069144;28;20408;-73
2022/06/22 10:19:36;;;;;;;11.95;2.95;;;24.50;49.40;;;;;;5068831;28;20055;-72
2022/06/22 10:22:13;;;;;;;14.27;2.67;;;24.40;49.40;;;;;;5059505;28;20060;-72
2022/06/22 10:24:54;;;;;;;10.82;2.90;;;24.30;49.40;;;;;;5067682;28;20052;-72
2022/06/22 10:28:04;;;;;;;11.55;2.70;;;24.50;50.80;;;;;;5062592;28;20651;-72
2022/06/22 10:30:34;;;;;;;12.70;3.20;;;24.30;52.90;;;;;;5024024;28;20131;-72
2022/06/22 10:33:28;;;;;;;8.80;3.00;;;24.20;49.60;;;;;;5048623;28;20059;-72
2022/06/22 10:36:02;;;;;;;7.90;2.90;;;24.20;49.60;;;;;;5047503;28;20045;-71
2022/06/22 10:38:39;;;;;;;15.80;3.20;;;24.20;49.70;;;;;;5047568;28;20080;-73
2022/06/22 10:47:13;;;;;;;7.43;2.70;;;24.00;53.10;;;;;;5047512;28;20061;-72
2022/06/22 10:50:02;;;;;;;8.55;2.60;;;24.10;52.80;;;;;;5047662;28;20417;-71
2022/06/22 10:52:48;;;;;;;8.20;2.50;;;24.10;49.70;;;;;;5047546;28;20053;-71
2022/06/22 10:55:38;;;;;;;6.68;2.63;;;24.10;49.90;;;;;;5063779;28;20079;-71
2022/06/22 10:58:19;;;;;;;6.45;2.22;;;23.50;53.00;;;;;;5048037;28;20044;-72
2022/06/22 11:00:53;;;;;;;6.35;2.30;;;24.10;50.10;;;;;;5047114;28;20056;-73
2022/06/22 11:03:53;;;;;;;6.50;2.30;;;24.10;50.10;;;;;;5062140;28;20119;-73
2022/06/22 11:06:47;;;;;;;5.70;2.40;;;24.10;50.10;;;;;;5057936;28;20041;-73
2022/06/22 11:09:31;;;;;;;11.00;2.70;;;24.10;50.30;;;;;;5050149;28;20075;-71
2022/06/22 11:12:14;;;;;;;4.88;2.20;;;24.10;50.30;;;;;;5059775;28;20138;-72
2022/06/22 11:14:54;;;;;;;6.13;2.08;;;24.00;50.30;;;;;;5058882;28;20562;-72
2022/06/22 11:17:30;;;;;;;7.07;2.05;;;24.40;51.60;;;;;;5060826;28;20120;-72
2022/06/22 11:20:18;;;;;;;5.90;2.40;;;24.00;53.90;;;;;;5062866;28;20052;-72
2022/06/22 11:22:47;;;;;;;10.23;2.38;;;24.00;50.20;;;;;;5052084;28;20103;-72
2022/06/22 11:32:02;;;;;;;4.90;2.20;;;23.80;54.20;;;;;;5052056;28;20040;-72
2022/06/22 11:35:11;;;;;;;4.50;2.03;;;24.00;50.30;;;;;;5051605;28;20120;-72
2022/06/22 11:37:48;;;;;;;4.95;2.50;;;24.00;50.30;;;;;;5051707;28;20084;-71
2022/06/22 11:40:39;;;;;;;4.70;2.25;;;24.00;54.10;;;;;;5051723;28;20128;-71
2022/06/22 11:43:17;;;;;;;3.80;2.10;;;24.00;50.50;;;;;;5051299;28;20053;-71
2022/06/22 11:45:55;;;;;;;6.03;2.25;;;23.90;50.40;;;;;;5051730;28;20622;-71
2022/06/22 11:48:42;;;;;;;5.80;2.10;;;23.90;50.40;;;;;;5051665;28;20057;-71
2022/06/22 11:51:19;;;;;;;5.72;2.00;;;24.00;50.30;;;;;;5051411;28;20520;-71
2022/06/22 11:53:58;;;;;;;6.90;2.67;;;24.00;50.40;;;;;;5051230;28;20080;-71
2022/06/22 11:56:32;;;;;;;7.32;2.15;;;24.00;50.30;;;;;;5051747;28;20055;-71
2022/06/22 11:59:07;;;;;;;3.70;1.95;;;23.90;50.30;;;;;;5051532;28;20057;-71
2022/06/22 12:01:55;;;;;;;4.25;2.10;;;23.90;50.30;;;;;;5058144;28;20037;-71
2022/06/22 12:04:32;;;;;;;5.13;2.42;;;23.90;50.30;;;;;;5071085;28;20132;-71
2022/06/22 12:07:20;;;;;;;2.90;1.90;;;23.90;50.30;;;;;;5071547;28;20467;-71
2022/06/22 12:09:55;;;;;;;4.32;2.10;;;23.90;50.30;;;;;;5045528;28;20075;-70
2022/06/22 12:12:33;;;;;;;4.03;2.00;;;23.90;50.40;;;;;;5050131;28;20063;-71
2022/06/22 12:15:09;;;;;;;3.38;1.88;;;23.90;50.40;;;;;;5049910;28;20520;-71
2022/06/22 12:17:58;;;;;;;2.92;1.90;;;23.90;50.40;;;;;;5060908;28;20044;-71
2022/06/22 12:20:42;;;;;;;3.35;2.00;;;23.90;50.40;;;;;;5070235;28;20051;-71
2022/06/22 12:23:14;;;;;;;3.50;2.00;;;23.90;50.40;;;;;;5070912;28;20386;-71
2022/06/22 12:25:54;;;;;;;3.80;1.73;;;23.90;50.50;;;;;;5064536;28;20516;-71
2022/06/22 12:28:34;;;;;;;6.63;2.15;;;23.90;50.50;;;;;;5050820;28;20047;-71
2022/06/22 12:31:04;;;;;;;3.25;2.00;;;23.90;50.70;;;;;;5063389;28;20630;-72
2022/06/22 12:33:35;;;;;;;4.93;2.38;;;23.90;50.70;;;;;;5070772;28;20521;-72
2022/06/22 12:36:04;;;;;;;4.57;2.08;;;23.90;50.80;;;;;;5070416;28;20044;-71
2022/06/22 12:38:34;;;;;;;3.85;1.90;;;23.90;50.90;;;;;;5069222;28;20063;-72
2022/06/22 12:41:03;;;;;;;4.50;1.98;;;23.90;50.80;;;;;;5070992;28;20052;-71
2022/06/22 12:43:56;;;;;;;3.45;2.03;;;23.90;50.90;;;;;;5056977;28;20642;-71
2022/06/22 12:46:32;;;;;;;2.63;1.80;;;23.90;50.80;;;;;;5049690;28;20052;-71
2022/06/22 12:49:20;;;;;;;4.03;1.95;;;23.80;50.90;;;;;;5050135;28;20067;-72
2022/06/22 12:51:47;;;;;;;3.00;1.77;;;23.80;50.90;;;;;;5049413;28;20687;-73
2022/06/22 12:54:16;;;;;;;3.40;1.80;;;23.80;51.00;;;;;;5048816;28;20794;-71
2022/06/22 12:56:49;;;;;;;3.17;1.77;;;23.80;51.00;;;;;;5050621;28;20136;-72
2022/06/22 12:59:18;;;;;;;3.05;2.15;;;23.80;51.00;;;;;;5050046;28;20052;-71
2022/06/22 13:01:44;;;;;;;2.88;1.77;;;23.80;51.10;;;;;;5057437;28;20049;-71
2022/06/22 13:04:16;;;;;;;2.83;1.88;;;23.80;51.10;;;;;;5068541;28;20087;-71
2022/06/22 13:06:46;;;;;;;3.03;1.65;;;23.80;51.10;;;;;;5069135;28;20363;-72
2022/06/22 13:09:13;;;;;;;3.03;1.92;;;23.80;51.20;;;;;;5061003;28;20059;-73
2022/06/22 13:11:40;;;;;;;4.18;1.70;;;23.70;51.10;;;;;;5059768;28;20045;-71
2022/06/22 13:14:17;;;;;;;2.88;1.80;;;23.70;51.10;;;;;;5057897;28;20052;-74
2022/06/22 13:16:47;;;;;;;6.57;2.42;;;23.70;51.10;;;;;;5059382;28;20049;-71
2022/06/22 13:19:17;;;;;;;2.15;1.90;;;23.70;51.20;;;;;;5049120;28;20044;-72
2022/06/22 13:21:46;;;;;;;3.15;2.00;;;23.70;51.30;;;;;;5048673;28;20469;-71
2022/06/22 13:24:19;;;;;;;4.03;1.80;;;22.90;53.00;;;;;;5049592;28;20048;-72
2022/06/22 13:26:52;;;;;;;3.80;1.90;;;23.80;54.60;;;;;;5048735;28;20143;-72
2022/06/22 13:29:24;;;;;;;5.40;2.08;;;23.80;51.30;;;;;;5049752;28;20528;-71
2022/06/22 13:31:52;;;;;;;6.60;2.15;;;23.70;51.40;;;;;;5047437;28;20049;-72
2022/06/22 13:34:21;;;;;;;4.63;1.90;;;23.80;51.40;;;;;;5048938;28;20049;-72
2022/06/22 13:36:52;;;;;;;3.35;1.80;;;22.40;53.70;;;;;;5049489;28;20053;-71
2022/06/22 13:39:27;;;;;;;4.65;1.90;;;23.80;53.10;;;;;;5048464;28;20053;-71